Portada
METAR-TAF:

METAR-TAF

Aeroports :

Mineralnye Vody, Rússia

latitud: 44-14N, longitud: 043-04E, altitud: 314 m

Observació

L'informe es va fer fa 31 minuts, a les 10:30 UTC
Vent 16 kt del Est/Sud-Est
Temperatura 24°C
Humitat 34%
Pressió 1013 hPa
Visibilitat 10 km o més

METAR: URMM 081030Z 11008MPS 9999 NSC 24/07 Q1013 R12/090070 NOSIG RMK QFE732/0976

Hora: 15:01 (11:01 UTC)

Pronòstic

L'informe es va fer fa 3 hores i 1 minuts, a les 08:00 UTC
Pronòstic vàlid del 08 a les 09 UTC al 09 a les 09 UTC
Vent 12 kt del Est amb ràfegues de 25 kt
Visibilitat 10 km o més
Núvols disperses a una alçada de 3000 ft
Temporalment
l' 09 a les 00 UTC al 09 a les 09 UTC
Vent 2 kt amb direcció variable

TAF: URMM 080800Z 0809/0909 10006G13MPS 9999 SCT030 TX23/0812Z TN07/0903Z TEMPO 0900/0909 VRB01MPS

Observacions i pronòstics meteorològics de més de 4000 aeroports (METAR i TAF).

Les estacions disponibles són els punts grocs i vermells al mapa.

Posi el ratolí al punt desitjat per veure el nom de l'estació.

Feu clic per veure les observacions i els pronòstics meteorològics.

Per canviar el mapa: feu clic els botons verds amb una creu de color negre per apropar; al botó verd amb un guió per allunyar la imatge; o en les fletxes verdes per a mapes adjacents.


METAR-TAF: